sensor_id;sensor_type;location;lat;lon;timestamp;temperature;humidity
28823;DHT22;15961;54.678;9.110;2023-03-26T00:01:17;6.70;99.90
28823;DHT22;15961;54.678;9.110;2023-03-26T00:03:43;6.60;99.90
28823;DHT22;15961;54.678;9.110;2023-03-26T00:06:13;6.60;99.90
28823;DHT22;15961;54.678;9.110;2023-03-26T00:08:41;6.50;99.90
28823;DHT22;15961;54.678;9.110;2023-03-26T00:11:10;6.40;99.90
28823;DHT22;15961;54.678;9.110;2023-03-26T00:13:36;6.30;99.90
28823;DHT22;15961;54.678;9.110;2023-03-26T00:16:02;6.30;99.90
28823;DHT22;15961;54.678;9.110;2023-03-26T00:18:29;6.30;99.90
28823;DHT22;15961;54.678;9.110;2023-03-26T00:20:57;6.30;99.90
28823;DHT22;15961;54.678;9.110;2023-03-26T00:23:23;6.20;99.90
28823;DHT22;15961;54.678;9.110;2023-03-26T00:25:50;6.20;99.90
28823;DHT22;15961;54.678;9.110;2023-03-26T00:28:16;6.30;99.90
28823;DHT22;15961;54.678;9.110;2023-03-26T00:30:46;6.30;99.90
28823;DHT22;15961;54.678;9.110;2023-03-26T00:33:12;6.20;99.90
28823;DHT22;15961;54.678;9.110;2023-03-26T00:35:42;6.20;99.90
28823;DHT22;15961;54.678;9.110;2023-03-26T00:38:14;6.10;99.90
28823;DHT22;15961;54.678;9.110;2023-03-26T00:40:40;6.10;99.90
28823;DHT22;15961;54.678;9.110;2023-03-26T00:43:12;6.10;99.90
28823;DHT22;15961;54.678;9.110;2023-03-26T00:45:48;6.10;99.90
28823;DHT22;15961;54.678;9.110;2023-03-26T00:48:14;6.10;99.90
28823;DHT22;15961;54.678;9.110;2023-03-26T00:50:41;6.00;99.90
28823;DHT22;15961;54.678;9.110;2023-03-26T00:53:08;5.90;99.90
28823;DHT22;15961;54.678;9.110;2023-03-26T00:55:36;6.00;99.90
28823;DHT22;15961;54.678;9.110;2023-03-26T00:58:02;5.90;99.90
28823;DHT22;15961;54.678;9.110;2023-03-26T01:00:33;6.00;99.90
28823;DHT22;15961;54.678;9.110;2023-03-26T01:03:03;6.00;99.90
28823;DHT22;15961;54.678;9.110;2023-03-26T01:08:31;6.10;99.90
28823;DHT22;15961;54.678;9.110;2023-03-26T01:11:01;6.10;99.90
28823;DHT22;15961;54.678;9.110;2023-03-26T01:13:34;6.10;99.90
28823;DHT22;15961;54.678;9.110;2023-03-26T01:16:13;6.20;99.90
28823;DHT22;15961;54.678;9.110;2023-03-26T01:18:47;6.10;99.90
28823;DHT22;15961;54.678;9.110;2023-03-26T01:21:13;6.20;99.90
28823;DHT22;15961;54.678;9.110;2023-03-26T01:23:54;6.20;99.90
28823;DHT22;15961;54.678;9.110;2023-03-26T01:26:37;6.10;99.90
28823;DHT22;15961;54.678;9.110;2023-03-26T01:29:18;6.10;99.90
28823;DHT22;15961;54.678;9.110;2023-03-26T01:34:14;6.10;99.90
28823;DHT22;15961;54.678;9.110;2023-03-26T01:36:55;6.00;99.90
28823;DHT22;15961;54.678;9.110;2023-03-26T01:39:42;6.00;99.90
28823;DHT22;15961;54.678;9.110;2023-03-26T01:42:30;5.90;99.90
28823;DHT22;15961;54.678;9.110;2023-03-26T01:45:14;5.90;99.90
28823;DHT22;15961;54.678;9.110;2023-03-26T01:47:42;5.90;99.90
28823;DHT22;15961;54.678;9.110;2023-03-26T01:50:09;5.80;99.90
28823;DHT22;15961;54.678;9.110;2023-03-26T01:52:34;5.80;99.90
28823;DHT22;15961;54.678;9.110;2023-03-26T01:55:00;5.70;99.90
28823;DHT22;15961;54.678;9.110;2023-03-26T01:57:54;5.70;99.90
28823;DHT22;15961;54.678;9.110;2023-03-26T02:01:02;5.60;99.90
28823;DHT22;15961;54.678;9.110;2023-03-26T02:03:31;5.50;99.90
28823;DHT22;15961;54.678;9.110;2023-03-26T02:07:13;5.50;99.90
28823;DHT22;15961;54.678;9.110;2023-03-26T02:09:10;5.50;99.90
28823;DHT22;15961;54.678;9.110;2023-03-26T02:11:37;5.40;99.90
28823;DHT22;15961;54.678;9.110;2023-03-26T02:14:05;5.50;99.90
28823;DHT22;15961;54.678;9.110;2023-03-26T02:16:31;5.50;99.90
28823;DHT22;15961;54.678;9.110;2023-03-26T02:18:57;5.40;99.90
28823;DHT22;15961;54.678;9.110;2023-03-26T02:21:25;5.30;99.90
28823;DHT22;15961;54.678;9.110;2023-03-26T02:23:54;5.30;99.90
28823;DHT22;15961;54.678;9.110;2023-03-26T02:26:31;5.20;99.90
28823;DHT22;15961;54.678;9.110;2023-03-26T02:28:58;5.10;99.90
28823;DHT22;15961;54.678;9.110;2023-03-26T02:31:23;5.00;99.90
28823;DHT22;15961;54.678;9.110;2023-03-26T02:33:53;5.00;99.90
28823;DHT22;15961;54.678;9.110;2023-03-26T02:36:19;4.90;99.90
28823;DHT22;15961;54.678;9.110;2023-03-26T02:38:49;4.70;99.90
28823;DHT22;15961;54.678;9.110;2023-03-26T02:41:16;4.60;99.90
28823;DHT22;15961;54.678;9.110;2023-03-26T02:43:41;4.50;99.90
28823;DHT22;15961;54.678;9.110;2023-03-26T02:46:10;4.50;99.90
28823;DHT22;15961;54.678;9.110;2023-03-26T02:48:35;4.40;99.90
28823;DHT22;15961;54.678;9.110;2023-03-26T02:51:01;4.40;99.90
28823;DHT22;15961;54.678;9.110;2023-03-26T02:53:27;4.40;99.90
28823;DHT22;15961;54.678;9.110;2023-03-26T02:55:56;4.50;99.90
28823;DHT22;15961;54.678;9.110;2023-03-26T02:58:21;4.50;99.90
28823;DHT22;15961;54.678;9.110;2023-03-26T03:00:50;4.50;99.90
28823;DHT22;15961;54.678;9.110;2023-03-26T03:03:19;4.50;99.90
28823;DHT22;15961;54.678;9.110;2023-03-26T03:05:49;4.60;99.90
28823;DHT22;15961;54.678;9.110;2023-03-26T03:08:23;4.60;99.90
28823;DHT22;15961;54.678;9.110;2023-03-26T03:11:00;4.60;99.90
28823;DHT22;15961;54.678;9.110;2023-03-26T03:13:27;4.60;99.90
28823;DHT22;15961;54.678;9.110;2023-03-26T03:15:53;4.70;99.90
28823;DHT22;15961;54.678;9.110;2023-03-26T03:18:19;4.60;99.90
28823;DHT22;15961;54.678;9.110;2023-03-26T03:20:44;4.60;99.90
28823;DHT22;15961;54.678;9.110;2023-03-26T03:23:11;4.60;99.90
28823;DHT22;15961;54.678;9.110;2023-03-26T03:25:37;4.50;99.90
28823;DHT22;15961;54.678;9.110;2023-03-26T03:28:03;4.40;99.90
28823;DHT22;15961;54.678;9.110;2023-03-26T03:30:29;4.40;99.90
28823;DHT22;15961;54.678;9.110;2023-03-26T03:32:54;4.50;99.90
28823;DHT22;15961;54.678;9.110;2023-03-26T03:35:23;4.50;99.90
28823;DHT22;15961;54.678;9.110;2023-03-26T03:37:48;4.40;99.90
28823;DHT22;15961;54.678;9.110;2023-03-26T03:40:17;4.40;99.90
28823;DHT22;15961;54.678;9.110;2023-03-26T03:42:44;4.30;99.90
28823;DHT22;15961;54.678;9.110;2023-03-26T03:45:10;4.30;99.90
28823;DHT22;15961;54.678;9.110;2023-03-26T03:47:36;4.20;99.90
28823;DHT22;15961;54.678;9.110;2023-03-26T03:50:03;4.20;99.90
28823;DHT22;15961;54.678;9.110;2023-03-26T03:52:28;4.30;99.90
28823;DHT22;15961;54.678;9.110;2023-03-26T03:54:55;4.30;99.90
28823;DHT22;15961;54.678;9.110;2023-03-26T03:57:22;4.30;99.90
28823;DHT22;15961;54.678;9.110;2023-03-26T03:59:48;4.20;99.90
28823;DHT22;15961;54.678;9.110;2023-03-26T04:02:14;4.20;99.90
28823;DHT22;15961;54.678;9.110;2023-03-26T04:04:45;4.20;99.90
28823;DHT22;15961;54.678;9.110;2023-03-26T04:07:14;4.10;99.90
28823;DHT22;15961;54.678;9.110;2023-03-26T04:09:40;4.10;99.90
28823;DHT22;15961;54.678;9.110;2023-03-26T04:12:05;4.10;99.90
28823;DHT22;15961;54.678;9.110;2023-03-26T04:14:31;4.00;99.90
28823;DHT22;15961;54.678;9.110;2023-03-26T04:16:56;4.10;99.90
28823;DHT22;15961;54.678;9.110;2023-03-26T04:19:22;4.10;99.90
28823;DHT22;15961;54.678;9.110;2023-03-26T04:21:47;4.10;99.90
28823;DHT22;15961;54.678;9.110;2023-03-26T04:24:13;4.20;99.90
28823;DHT22;15961;54.678;9.110;2023-03-26T04:26:39;4.10;99.90
28823;DHT22;15961;54.678;9.110;2023-03-26T04:29:06;4.20;99.90
28823;DHT22;15961;54.678;9.110;2023-03-26T04:31:37;4.20;99.90
28823;DHT22;15961;54.678;9.110;2023-03-26T04:34:08;4.30;99.90
28823;DHT22;15961;54.678;9.110;2023-03-26T04:36:38;4.20;99.90
28823;DHT22;15961;54.678;9.110;2023-03-26T04:39:09;4.20;99.90
28823;DHT22;15961;54.678;9.110;2023-03-26T04:41:36;4.20;99.90
28823;DHT22;15961;54.678;9.110;2023-03-26T04:44:01;4.20;99.90
28823;DHT22;15961;54.678;9.110;2023-03-26T04:46:27;4.20;99.90
28823;DHT22;15961;54.678;9.110;2023-03-26T04:48:57;4.10;99.90
28823;DHT22;15961;54.678;9.110;2023-03-26T04:51:36;4.10;99.90
28823;DHT22;15961;54.678;9.110;2023-03-26T04:54:03;4.00;99.90
28823;DHT22;15961;54.678;9.110;2023-03-26T04:59:21;4.00;99.90
28823;DHT22;15961;54.678;9.110;2023-03-26T05:01:54;4.00;99.90
28823;DHT22;15961;54.678;9.110;2023-03-26T05:04:19;4.00;99.90
28823;DHT22;15961;54.678;9.110;2023-03-26T05:06:45;4.00;99.90
28823;DHT22;15961;54.678;9.110;2023-03-26T05:09:11;3.90;99.90
28823;DHT22;15961;54.678;9.110;2023-03-26T05:11:36;3.90;99.90
28823;DHT22;15961;54.678;9.110;2023-03-26T05:14:02;3.90;99.90
28823;DHT22;15961;54.678;9.110;2023-03-26T05:16:28;3.80;99.90
28823;DHT22;15961;54.678;9.110;2023-03-26T05:18:54;3.80;99.90
28823;DHT22;15961;54.678;9.110;2023-03-26T05:21:20;3.80;99.90
28823;DHT22;15961;54.678;9.110;2023-03-26T05:23:46;3.80;99.90
28823;DHT22;15961;54.678;9.110;2023-03-26T05:26:12;3.80;99.90
28823;DHT22;15961;54.678;9.110;2023-03-26T05:28:37;3.80;99.90
28823;DHT22;15961;54.678;9.110;2023-03-26T05:31:03;3.80;99.90
28823;DHT22;15961;54.678;9.110;2023-03-26T05:33:29;3.80;99.90
28823;DHT22;15961;54.678;9.110;2023-03-26T05:35:59;3.70;99.90
28823;DHT22;15961;54.678;9.110;2023-03-26T05:38:27;3.70;99.90
28823;DHT22;15961;54.678;9.110;2023-03-26T05:41:06;3.60;99.90
28823;DHT22;15961;54.678;9.110;2023-03-26T05:43:32;3.70;99.90
28823;DHT22;15961;54.678;9.110;2023-03-26T05:45:58;3.70;99.90
28823;DHT22;15961;54.678;9.110;2023-03-26T05:48:25;3.70;99.90
28823;DHT22;15961;54.678;9.110;2023-03-26T05:50:52;3.60;99.90
28823;DHT22;15961;54.678;9.110;2023-03-26T05:53:19;3.70;99.90
28823;DHT22;15961;54.678;9.110;2023-03-26T05:55:45;3.70;99.90
28823;DHT22;15961;54.678;9.110;2023-03-26T05:58:15;3.70;99.90
28823;DHT22;15961;54.678;9.110;2023-03-26T06:00:40;3.70;99.90
28823;DHT22;15961;54.678;9.110;2023-03-26T06:03:09;3.70;99.90
28823;DHT22;15961;54.678;9.110;2023-03-26T06:05:37;3.80;99.90
28823;DHT22;15961;54.678;9.110;2023-03-26T06:08:07;3.80;99.90
28823;DHT22;15961;54.678;9.110;2023-03-26T06:10:39;3.80;99.90
28823;DHT22;15961;54.678;9.110;2023-03-26T06:13:05;3.80;99.90
28823;DHT22;15961;54.678;9.110;2023-03-26T06:15:30;3.80;99.90
28823;DHT22;15961;54.678;9.110;2023-03-26T06:17:56;3.80;99.90
28823;DHT22;15961;54.678;9.110;2023-03-26T06:20:21;3.90;99.90
28823;DHT22;15961;54.678;9.110;2023-03-26T06:22:47;4.00;99.90
28823;DHT22;15961;54.678;9.110;2023-03-26T06:25:12;4.10;99.90
28823;DHT22;15961;54.678;9.110;2023-03-26T06:27:38;4.20;99.90
28823;DHT22;15961;54.678;9.110;2023-03-26T06:30:03;4.20;99.90
28823;DHT22;15961;54.678;9.110;2023-03-26T06:32:29;4.30;99.90
28823;DHT22;15961;54.678;9.110;2023-03-26T06:34:55;4.30;99.90
28823;DHT22;15961;54.678;9.110;2023-03-26T06:37:20;4.40;99.90
28823;DHT22;15961;54.678;9.110;2023-03-26T06:39:46;4.60;99.90
28823;DHT22;15961;54.678;9.110;2023-03-26T06:42:12;4.80;99.90
28823;DHT22;15961;54.678;9.110;2023-03-26T06:44:38;4.90;99.90
28823;DHT22;15961;54.678;9.110;2023-03-26T06:47:04;4.90;99.90
28823;DHT22;15961;54.678;9.110;2023-03-26T06:49:30;4.80;99.90
28823;DHT22;15961;54.678;9.110;2023-03-26T06:51:55;4.80;99.90
28823;DHT22;15961;54.678;9.110;2023-03-26T06:54:23;5.00;99.90
28823;DHT22;15961;54.678;9.110;2023-03-26T06:56:49;5.20;99.90
28823;DHT22;15961;54.678;9.110;2023-03-26T06:59:15;5.20;99.90
28823;DHT22;15961;54.678;9.110;2023-03-26T07:01:40;5.20;99.90
28823;DHT22;15961;54.678;9.110;2023-03-26T07:04:06;5.20;99.90
28823;DHT22;15961;54.678;9.110;2023-03-26T07:06:31;5.40;99.90
28823;DHT22;15961;54.678;9.110;2023-03-26T07:08:57;5.60;99.90
28823;DHT22;15961;54.678;9.110;2023-03-26T07:11:22;5.90;99.90
28823;DHT22;15961;54.678;9.110;2023-03-26T07:13:52;5.90;99.90
28823;DHT22;15961;54.678;9.110;2023-03-26T07:16:20;5.60;99.90
28823;DHT22;15961;54.678;9.110;2023-03-26T07:18:46;5.40;99.90
28823;DHT22;15961;54.678;9.110;2023-03-26T07:21:12;5.20;99.90
28823;DHT22;15961;54.678;9.110;2023-03-26T07:23:38;5.40;99.90
28823;DHT22;15961;54.678;9.110;2023-03-26T07:29:19;5.60;99.90
28823;DHT22;15961;54.678;9.110;2023-03-26T07:45:53;6.40;99.90
28823;DHT22;15961;54.678;9.110;2023-03-26T07:48:21;6.20;99.90
28823;DHT22;15961;54.678;9.110;2023-03-26T07:50:50;6.10;99.90
28823;DHT22;15961;54.678;9.110;2023-03-26T07:53:16;6.20;99.90
28823;DHT22;15961;54.678;9.110;2023-03-26T07:56:14;6.20;99.90
28823;DHT22;15961;54.678;9.110;2023-03-26T07:59:06;6.30;99.90
28823;DHT22;15961;54.678;9.110;2023-03-26T08:10:16;6.80;99.90
28823;DHT22;15961;54.678;9.110;2023-03-26T08:12:57;6.90;99.90
28823;DHT22;15961;54.678;9.110;2023-03-26T08:15:56;6.80;99.90
28823;DHT22;15961;54.678;9.110;2023-03-26T08:18:42;6.70;99.90
28823;DHT22;15961;54.678;9.110;2023-03-26T08:21:40;6.40;99.90
28823;DHT22;15961;54.678;9.110;2023-03-26T08:24:13;6.50;99.90
28823;DHT22;15961;54.678;9.110;2023-03-26T08:29:59;7.10;99.90
28823;DHT22;15961;54.678;9.110;2023-03-26T08:32:28;7.40;99.90
28823;DHT22;15961;54.678;9.110;2023-03-26T08:34:53;7.30;99.90
28823;DHT22;15961;54.678;9.110;2023-03-26T08:37:20;7.30;99.90
28823;DHT22;15961;54.678;9.110;2023-03-26T08:39:46;6.90;99.90
28823;DHT22;15961;54.678;9.110;2023-03-26T08:50:26;7.40;99.90
28823;DHT22;15961;54.678;9.110;2023-03-26T08:55:48;7.30;99.90
28823;DHT22;15961;54.678;9.110;2023-03-26T09:01:27;7.70;99.90
28823;DHT22;15961;54.678;9.110;2023-03-26T09:04:13;7.90;99.90
28823;DHT22;15961;54.678;9.110;2023-03-26T09:09:47;7.10;99.90
28823;DHT22;15961;54.678;9.110;2023-03-26T09:15:48;7.40;99.90
28823;DHT22;15961;54.678;9.110;2023-03-26T09:26:47;7.80;99.90
28823;DHT22;15961;54.678;9.110;2023-03-26T09:40:54;8.10;99.90
28823;DHT22;15961;54.678;9.110;2023-03-26T09:49:01;8.40;99.90
28823;DHT22;15961;54.678;9.110;2023-03-26T09:51:34;8.40;99.90
28823;DHT22;15961;54.678;9.110;2023-03-26T09:54:45;8.20;99.90
28823;DHT22;15961;54.678;9.110;2023-03-26T10:02:48;8.40;99.90
28823;DHT22;15961;54.678;9.110;2023-03-26T10:05:22;8.40;99.90
28823;DHT22;15961;54.678;9.110;2023-03-26T10:10:34;8.90;99.90
28823;DHT22;15961;54.678;9.110;2023-03-26T10:19:39;8.50;99.90
28823;DHT22;15961;54.678;9.110;2023-03-26T10:22:23;8.30;99.90
28823;DHT22;15961;54.678;9.110;2023-03-26T10:25:14;8.50;99.90
28823;DHT22;15961;54.678;9.110;2023-03-26T10:41:20;8.90;99.90
28823;DHT22;15961;54.678;9.110;2023-03-26T10:44:03;9.10;99.90
28823;DHT22;15961;54.678;9.110;2023-03-26T10:46:59;8.80;99.90
28823;DHT22;15961;54.678;9.110;2023-03-26T10:49:40;8.50;99.90
28823;DHT22;15961;54.678;9.110;2023-03-26T10:52:17;8.70;99.90
28823;DHT22;15961;54.678;9.110;2023-03-26T10:55:01;8.90;99.90
28823;DHT22;15961;54.678;9.110;2023-03-26T11:06:07;9.30;99.90
28823;DHT22;15961;54.678;9.110;2023-03-26T11:08:35;9.50;99.90
28823;DHT22;15961;54.678;9.110;2023-03-26T11:13:49;9.80;99.90
28823;DHT22;15961;54.678;9.110;2023-03-26T11:25:19;9.70;99.90
28823;DHT22;15961;54.678;9.110;2023-03-26T11:31:23;10.20;99.90
28823;DHT22;15961;54.678;9.110;2023-03-26T11:33:55;10.30;99.90
28823;DHT22;15961;54.678;9.110;2023-03-26T11:36:29;10.00;99.90
28823;DHT22;15961;54.678;9.110;2023-03-26T11:38:57;9.80;99.90
28823;DHT22;15961;54.678;9.110;2023-03-26T11:41:26;9.60;99.90
28823;DHT22;15961;54.678;9.110;2023-03-26T11:44:18;9.80;99.90
28823;DHT22;15961;54.678;9.110;2023-03-26T11:46:48;10.20;99.90
28823;DHT22;15961;54.678;9.110;2023-03-26T11:49:17;10.40;99.90
28823;DHT22;15961;54.678;9.110;2023-03-26T11:51:45;10.60;99.90
28823;DHT22;15961;54.678;9.110;2023-03-26T11:54:12;10.50;99.90
28823;DHT22;15961;54.678;9.110;2023-03-26T11:56:47;10.40;99.90
28823;DHT22;15961;54.678;9.110;2023-03-26T11:59:22;10.60;99.90
28823;DHT22;15961;54.678;9.110;2023-03-26T12:01:55;11.00;99.90
28823;DHT22;15961;54.678;9.110;2023-03-26T12:04:40;10.60;99.90
28823;DHT22;15961;54.678;9.110;2023-03-26T12:09:55;11.30;99.90
28823;DHT22;15961;54.678;9.110;2023-03-26T12:12:24;11.40;99.90
28823;DHT22;15961;54.678;9.110;2023-03-26T12:14:52;11.60;99.90
28823;DHT22;15961;54.678;9.110;2023-03-26T12:19:54;11.40;99.90
28823;DHT22;15961;54.678;9.110;2023-03-26T12:27:27;11.80;99.90
28823;DHT22;15961;54.678;9.110;2023-03-26T12:30:08;12.20;99.90
28823;DHT22;15961;54.678;9.110;2023-03-26T12:35:05;12.20;99.90
28823;DHT22;15961;54.678;9.110;2023-03-26T12:37:37;12.40;99.90
28823;DHT22;15961;54.678;9.110;2023-03-26T12:40:31;12.30;99.90
28823;DHT22;15961;54.678;9.110;2023-03-26T12:43:01;12.80;99.90
28823;DHT22;15961;54.678;9.110;2023-03-26T12:45:38;12.30;99.90
28823;DHT22;15961;54.678;9.110;2023-03-26T12:48:06;12.80;99.90
28823;DHT22;15961;54.678;9.110;2023-03-26T12:51:02;12.90;99.90
28823;DHT22;15961;54.678;9.110;2023-03-26T12:54:02;12.90;99.90
28823;DHT22;15961;54.678;9.110;2023-03-26T13:05:35;13.20;99.90
28823;DHT22;15961;54.678;9.110;2023-03-26T13:14:02;12.70;99.90
28823;DHT22;15961;54.678;9.110;2023-03-26T13:19:17;12.50;99.90
28823;DHT22;15961;54.678;9.110;2023-03-26T13:24:57;12.90;99.90
28823;DHT22;15961;54.678;9.110;2023-03-26T13:27:48;13.00;99.90
28823;DHT22;15961;54.678;9.110;2023-03-26T13:33:40;13.60;99.90
28823;DHT22;15961;54.678;9.110;2023-03-26T13:39:28;13.40;99.90
28823;DHT22;15961;54.678;9.110;2023-03-26T13:42:26;13.30;99.90
28823;DHT22;15961;54.678;9.110;2023-03-26T13:45:09;13.20;99.90
28823;DHT22;15961;54.678;9.110;2023-03-26T13:47:43;13.10;99.90
28823;DHT22;15961;54.678;9.110;2023-03-26T13:50:25;12.40;99.90
28823;DHT22;15961;54.678;9.110;2023-03-26T14:01:14;12.30;99.90
28823;DHT22;15961;54.678;9.110;2023-03-26T14:09:02;12.90;99.90
28823;DHT22;15961;54.678;9.110;2023-03-26T14:11:47;12.80;99.90
28823;DHT22;15961;54.678;9.110;2023-03-26T14:14:22;12.70;99.90
28823;DHT22;15961;54.678;9.110;2023-03-26T14:16:58;12.20;99.90
28823;DHT22;15961;54.678;9.110;2023-03-26T14:25:06;12.70;99.90
28823;DHT22;15961;54.678;9.110;2023-03-26T14:33:48;12.30;99.90
28823;DHT22;15961;54.678;9.110;2023-03-26T14:36:21;12.40;99.90
28823;DHT22;15961;54.678;9.110;2023-03-26T14:39:12;12.50;99.90
28823;DHT22;15961;54.678;9.110;2023-03-26T14:41:55;12.60;99.90
28823;DHT22;15961;54.678;9.110;2023-03-26T14:44:31;11.80;99.90
28823;DHT22;15961;54.678;9.110;2023-03-26T14:52:53;11.50;99.90
28823;DHT22;15961;54.678;9.110;2023-03-26T15:06:37;10.80;99.90
28823;DHT22;15961;54.678;9.110;2023-03-26T15:15:48;11.20;99.90
28823;DHT22;15961;54.678;9.110;2023-03-26T15:17:58;11.20;99.90
28823;DHT22;15961;54.678;9.110;2023-03-26T15:26:42;11.00;99.90
28823;DHT22;15961;54.678;9.110;2023-03-26T15:29:02;10.50;99.90
28823;DHT22;15961;54.678;9.110;2023-03-26T15:39:59;10.70;99.90
28823;DHT22;15961;54.678;9.110;2023-03-26T15:42:46;10.50;99.90
28823;DHT22;15961;54.678;9.110;2023-03-26T15:51:19;10.10;99.90
28823;DHT22;15961;54.678;9.110;2023-03-26T15:54:05;10.00;99.90
28823;DHT22;15961;54.678;9.110;2023-03-26T15:56:48;10.40;99.90
28823;DHT22;15961;54.678;9.110;2023-03-26T15:59:23;10.50;99.90
28823;DHT22;15961;54.678;9.110;2023-03-26T16:02:20;10.50;99.90
28823;DHT22;15961;54.678;9.110;2023-03-26T16:04:59;10.60;99.90
28823;DHT22;15961;54.678;9.110;2023-03-26T16:07:48;10.10;99.70
28823;DHT22;15961;54.678;9.110;2023-03-26T16:13:37;9.60;99.90
28823;DHT22;15961;54.678;9.110;2023-03-26T16:23:57;8.50;99.90
28823;DHT22;15961;54.678;9.110;2023-03-26T16:26:39;8.40;99.90
28823;DHT22;15961;54.678;9.110;2023-03-26T16:32:42;8.60;99.90
28823;DHT22;15961;54.678;9.110;2023-03-26T16:34:57;8.40;99.90
28823;DHT22;15961;54.678;9.110;2023-03-26T16:57:07;8.00;99.90
28823;DHT22;15961;54.678;9.110;2023-03-26T16:59:38;8.20;99.90
28823;DHT22;15961;54.678;9.110;2023-03-26T17:05:19;8.10;99.90
28823;DHT22;15961;54.678;9.110;2023-03-26T17:10:54;7.00;99.90
28823;DHT22;15961;54.678;9.110;2023-03-26T17:16:14;6.50;99.90
28823;DHT22;15961;54.678;9.110;2023-03-26T17:21:28;6.10;99.90
28823;DHT22;15961;54.678;9.110;2023-03-26T17:24:39;5.90;99.90
28823;DHT22;15961;54.678;9.110;2023-03-26T17:27:50;5.80;99.90
28823;DHT22;15961;54.678;9.110;2023-03-26T17:31:23;5.60;99.90
28823;DHT22;15961;54.678;9.110;2023-03-26T17:33:42;5.60;99.90
28823;DHT22;15961;54.678;9.110;2023-03-26T17:41:01;5.30;99.90
28823;DHT22;15961;54.678;9.110;2023-03-26T17:46:21;5.20;99.90
28823;DHT22;15961;54.678;9.110;2023-03-26T17:49:17;5.10;99.90
28823;DHT22;15961;54.678;9.110;2023-03-26T17:51:58;5.10;99.90
28823;DHT22;15961;54.678;9.110;2023-03-26T17:54:32;5.00;99.90
28823;DHT22;15961;54.678;9.110;2023-03-26T17:59:44;4.80;99.90
28823;DHT22;15961;54.678;9.110;2023-03-26T18:02:14;4.80;99.90
28823;DHT22;15961;54.678;9.110;2023-03-26T18:04:42;4.70;99.90
28823;DHT22;15961;54.678;9.110;2023-03-26T18:21:31;4.30;99.90
28823;DHT22;15961;54.678;9.110;2023-03-26T18:24:00;4.20;99.90
28823;DHT22;15961;54.678;9.110;2023-03-26T18:26:41;4.10;99.90
28823;DHT22;15961;54.678;9.110;2023-03-26T18:29:24;4.10;99.90
28823;DHT22;15961;54.678;9.110;2023-03-26T18:34:44;4.00;99.90
28823;DHT22;15961;54.678;9.110;2023-03-26T18:37:26;4.00;99.90
28823;DHT22;15961;54.678;9.110;2023-03-26T18:42:22;3.80;99.90
28823;DHT22;15961;54.678;9.110;2023-03-26T18:44:49;3.80;99.90
28823;DHT22;15961;54.678;9.110;2023-03-26T18:47:16;3.70;99.90
28823;DHT22;15961;54.678;9.110;2023-03-26T18:49:46;3.60;99.90
28823;DHT22;15961;54.678;9.110;2023-03-26T18:52:15;3.60;99.90
28823;DHT22;15961;54.678;9.110;2023-03-26T18:54:42;3.40;99.90
28823;DHT22;15961;54.678;9.110;2023-03-26T18:57:18;3.40;99.90
28823;DHT22;15961;54.678;9.110;2023-03-26T18:59:48;3.30;99.90
28823;DHT22;15961;54.678;9.110;2023-03-26T19:02:15;3.30;99.90
28823;DHT22;15961;54.678;9.110;2023-03-26T19:04:42;3.30;99.90
28823;DHT22;15961;54.678;9.110;2023-03-26T19:07:12;3.30;99.90
28823;DHT22;15961;54.678;9.110;2023-03-26T19:09:41;3.40;99.90
28823;DHT22;15961;54.678;9.110;2023-03-26T19:12:17;3.30;99.90
28823;DHT22;15961;54.678;9.110;2023-03-26T19:15:21;3.30;99.90
28823;DHT22;15961;54.678;9.110;2023-03-26T19:17:51;3.30;99.90
28823;DHT22;15961;54.678;9.110;2023-03-26T19:20:26;3.20;99.90
28823;DHT22;15961;54.678;9.110;2023-03-26T19:22:56;3.20;99.90
28823;DHT22;15961;54.678;9.110;2023-03-26T19:25:29;3.10;99.90
28823;DHT22;15961;54.678;9.110;2023-03-26T19:27:57;3.20;99.90
28823;DHT22;15961;54.678;9.110;2023-03-26T19:30:29;3.20;99.90
28823;DHT22;15961;54.678;9.110;2023-03-26T19:33:01;3.10;99.90
28823;DHT22;15961;54.678;9.110;2023-03-26T19:35:35;3.10;99.90
28823;DHT22;15961;54.678;9.110;2023-03-26T19:38:16;3.00;99.90
28823;DHT22;15961;54.678;9.110;2023-03-26T19:40:43;3.00;99.90
28823;DHT22;15961;54.678;9.110;2023-03-26T19:43:11;2.90;99.90
28823;DHT22;15961;54.678;9.110;2023-03-26T19:45:48;2.80;99.90
28823;DHT22;15961;54.678;9.110;2023-03-26T19:48:17;2.80;99.90
28823;DHT22;15961;54.678;9.110;2023-03-26T19:50:54;2.70;99.90
28823;DHT22;15961;54.678;9.110;2023-03-26T19:53:32;2.70;99.90
28823;DHT22;15961;54.678;9.110;2023-03-26T19:58:32;2.50;99.90
28823;DHT22;15961;54.678;9.110;2023-03-26T20:00:59;2.50;99.90
28823;DHT22;15961;54.678;9.110;2023-03-26T20:03:35;2.50;99.90
28823;DHT22;15961;54.678;9.110;2023-03-26T20:06:02;2.50;99.90
28823;DHT22;15961;54.678;9.110;2023-03-26T20:08:30;2.50;99.90
28823;DHT22;15961;54.678;9.110;2023-03-26T20:10:56;2.40;99.90
28823;DHT22;15961;54.678;9.110;2023-03-26T20:13:22;2.50;99.90
28823;DHT22;15961;54.678;9.110;2023-03-26T20:15:59;2.50;99.90
28823;DHT22;15961;54.678;9.110;2023-03-26T20:18:28;2.40;99.90
28823;DHT22;15961;54.678;9.110;2023-03-26T20:20:54;2.30;99.90
28823;DHT22;15961;54.678;9.110;2023-03-26T20:23:23;2.30;99.90
28823;DHT22;15961;54.678;9.110;2023-03-26T20:25:51;2.30;99.90
28823;DHT22;15961;54.678;9.110;2023-03-26T20:28:21;2.30;99.90
28823;DHT22;15961;54.678;9.110;2023-03-26T20:30:49;2.20;99.90
28823;DHT22;15961;54.678;9.110;2023-03-26T20:33:21;2.20;99.90
28823;DHT22;15961;54.678;9.110;2023-03-26T20:35:50;2.20;99.90
28823;DHT22;15961;54.678;9.110;2023-03-26T20:38:16;2.10;99.90
28823;DHT22;15961;54.678;9.110;2023-03-26T20:40:42;2.10;99.90
28823;DHT22;15961;54.678;9.110;2023-03-26T20:43:13;2.00;99.90
28823;DHT22;15961;54.678;9.110;2023-03-26T20:45:40;2.00;99.90
28823;DHT22;15961;54.678;9.110;2023-03-26T20:48:06;1.90;99.90
28823;DHT22;15961;54.678;9.110;2023-03-26T20:50:34;1.80;99.90
28823;DHT22;15961;54.678;9.110;2023-03-26T20:53:00;1.80;99.90
28823;DHT22;15961;54.678;9.110;2023-03-26T20:55:28;1.70;99.90
28823;DHT22;15961;54.678;9.110;2023-03-26T20:57:54;1.70;99.90
28823;DHT22;15961;54.678;9.110;2023-03-26T21:00:20;1.70;99.90
28823;DHT22;15961;54.678;9.110;2023-03-26T21:02:56;1.80;99.90
28823;DHT22;15961;54.678;9.110;2023-03-26T21:05:24;1.70;99.90
28823;DHT22;15961;54.678;9.110;2023-03-26T21:07:52;1.70;99.90
28823;DHT22;15961;54.678;9.110;2023-03-26T21:10:19;1.70;99.90
28823;DHT22;15961;54.678;9.110;2023-03-26T21:15:25;1.60;99.90
28823;DHT22;15961;54.678;9.110;2023-03-26T21:17:52;1.60;99.90
28823;DHT22;15961;54.678;9.110;2023-03-26T21:20:19;1.60;99.90
28823;DHT22;15961;54.678;9.110;2023-03-26T21:28:45;1.40;99.90
28823;DHT22;15961;54.678;9.110;2023-03-26T21:31:22;1.30;99.90
28823;DHT22;15961;54.678;9.110;2023-03-26T21:33:49;1.30;99.90
28823;DHT22;15961;54.678;9.110;2023-03-26T21:36:16;1.20;99.90
28823;DHT22;15961;54.678;9.110;2023-03-26T21:38:43;1.20;99.90
28823;DHT22;15961;54.678;9.110;2023-03-26T21:41:47;1.20;99.90
28823;DHT22;15961;54.678;9.110;2023-03-26T21:44:14;1.10;99.90